sensor_id;sensor_type;location;lat;lon;timestamp;P1;durP1;ratioP1;P2;durP2;ratioP2
52708;SDS011;38606;52.986;6.980;2023-06-22T00:00:56;31.55;;;22.67;;
52708;SDS011;38606;52.986;6.980;2023-06-22T00:03:23;28.38;;;22.08;;
52708;SDS011;38606;52.986;6.980;2023-06-22T00:05:50;32.63;;;24.45;;
52708;SDS011;38606;52.986;6.980;2023-06-22T00:08:17;31.98;;;22.67;;
52708;SDS011;38606;52.986;6.980;2023-06-22T00:10:43;31.83;;;22.33;;
52708;SDS011;38606;52.986;6.980;2023-06-22T00:13:10;30.55;;;23.30;;
52708;SDS011;38606;52.986;6.980;2023-06-22T00:15:36;32.72;;;23.73;;
52708;SDS011;38606;52.986;6.980;2023-06-22T00:18:04;32.03;;;23.13;;
52708;SDS011;38606;52.986;6.980;2023-06-22T00:20:31;31.92;;;23.75;;
52708;SDS011;38606;52.986;6.980;2023-06-22T00:22:58;29.98;;;21.73;;
52708;SDS011;38606;52.986;6.980;2023-06-22T00:25:25;30.45;;;22.55;;
52708;SDS011;38606;52.986;6.980;2023-06-22T00:27:51;30.80;;;22.67;;
52708;SDS011;38606;52.986;6.980;2023-06-22T00:30:17;32.38;;;23.80;;
52708;SDS011;38606;52.986;6.980;2023-06-22T00:32:44;32.90;;;24.73;;
52708;SDS011;38606;52.986;6.980;2023-06-22T00:35:13;33.72;;;26.05;;
52708;SDS011;38606;52.986;6.980;2023-06-22T00:37:39;36.60;;;25.40;;
52708;SDS011;38606;52.986;6.980;2023-06-22T00:40:07;38.10;;;25.95;;
52708;SDS011;38606;52.986;6.980;2023-06-22T00:42:40;38.33;;;28.33;;
52708;SDS011;38606;52.986;6.980;2023-06-22T00:45:06;39.25;;;28.83;;
52708;SDS011;38606;52.986;6.980;2023-06-22T00:47:33;38.70;;;28.33;;
52708;SDS011;38606;52.986;6.980;2023-06-22T00:50:00;35.53;;;26.70;;
52708;SDS011;38606;52.986;6.980;2023-06-22T00:52:27;40.13;;;27.77;;
52708;SDS011;38606;52.986;6.980;2023-06-22T00:54:56;38.78;;;28.63;;
52708;SDS011;38606;52.986;6.980;2023-06-22T00:57:23;40.33;;;29.73;;
52708;SDS011;38606;52.986;6.980;2023-06-22T00:59:53;38.55;;;27.70;;
52708;SDS011;38606;52.986;6.980;2023-06-22T01:02:19;36.17;;;27.73;;
52708;SDS011;38606;52.986;6.980;2023-06-22T01:04:45;38.30;;;28.35;;
52708;SDS011;38606;52.986;6.980;2023-06-22T01:07:30;39.92;;;30.55;;
52708;SDS011;38606;52.986;6.980;2023-06-22T01:13:11;39.45;;;28.35;;
52708;SDS011;38606;52.986;6.980;2023-06-22T01:18:22;32.78;;;25.85;;
52708;SDS011;38606;52.986;6.980;2023-06-22T01:20:52;39.50;;;28.38;;
52708;SDS011;38606;52.986;6.980;2023-06-22T01:28:47;35.65;;;26.33;;
52708;SDS011;38606;52.986;6.980;2023-06-22T01:31:16;36.58;;;27.27;;
52708;SDS011;38606;52.986;6.980;2023-06-22T01:33:45;37.08;;;26.80;;
52708;SDS011;38606;52.986;6.980;2023-06-22T01:36:15;38.90;;;27.85;;
52708;SDS011;38606;52.986;6.980;2023-06-22T01:38:42;40.58;;;29.13;;
52708;SDS011;38606;52.986;6.980;2023-06-22T01:41:10;37.80;;;28.15;;
52708;SDS011;38606;52.986;6.980;2023-06-22T01:43:36;38.08;;;29.08;;
52708;SDS011;38606;52.986;6.980;2023-06-22T01:46:02;35.85;;;26.65;;
52708;SDS011;38606;52.986;6.980;2023-06-22T01:48:28;38.00;;;29.05;;
52708;SDS011;38606;52.986;6.980;2023-06-22T01:50:55;42.05;;;30.92;;
52708;SDS011;38606;52.986;6.980;2023-06-22T01:53:21;39.75;;;29.35;;
52708;SDS011;38606;52.986;6.980;2023-06-22T01:55:47;43.78;;;32.20;;
52708;SDS011;38606;52.986;6.980;2023-06-22T01:58:14;40.55;;;30.20;;
52708;SDS011;38606;52.986;6.980;2023-06-22T02:00:40;41.38;;;30.33;;
52708;SDS011;38606;52.986;6.980;2023-06-22T02:03:11;39.90;;;31.05;;
52708;SDS011;38606;52.986;6.980;2023-06-22T02:06:24;48.35;;;33.75;;
52708;SDS011;38606;52.986;6.980;2023-06-22T02:08:34;43.53;;;33.13;;
52708;SDS011;38606;52.986;6.980;2023-06-22T02:11:07;44.50;;;33.78;;
52708;SDS011;38606;52.986;6.980;2023-06-22T02:13:35;45.70;;;33.35;;
52708;SDS011;38606;52.986;6.980;2023-06-22T02:16:02;42.40;;;33.17;;
52708;SDS011;38606;52.986;6.980;2023-06-22T02:18:28;41.70;;;30.70;;
52708;SDS011;38606;52.986;6.980;2023-06-22T02:20:56;41.05;;;32.10;;
52708;SDS011;38606;52.986;6.980;2023-06-22T02:23:21;48.10;;;35.65;;
52708;SDS011;38606;52.986;6.980;2023-06-22T02:25:47;46.15;;;33.17;;
52708;SDS011;38606;52.986;6.980;2023-06-22T02:28:13;43.20;;;32.42;;
52708;SDS011;38606;52.986;6.980;2023-06-22T02:30:39;43.05;;;33.20;;
52708;SDS011;38606;52.986;6.980;2023-06-22T02:33:04;41.25;;;31.67;;
52708;SDS011;38606;52.986;6.980;2023-06-22T02:35:30;46.60;;;32.72;;
52708;SDS011;38606;52.986;6.980;2023-06-22T02:37:59;43.38;;;33.03;;
52708;SDS011;38606;52.986;6.980;2023-06-22T02:40:26;46.08;;;34.60;;
52708;SDS011;38606;52.986;6.980;2023-06-22T02:42:52;51.90;;;35.67;;
52708;SDS011;38606;52.986;6.980;2023-06-22T02:45:18;47.00;;;35.75;;
52708;SDS011;38606;52.986;6.980;2023-06-22T02:47:43;44.15;;;33.83;;
52708;SDS011;38606;52.986;6.980;2023-06-22T02:50:09;47.03;;;34.88;;
52708;SDS011;38606;52.986;6.980;2023-06-22T02:52:35;44.97;;;33.75;;
52708;SDS011;38606;52.986;6.980;2023-06-22T02:55:04;44.83;;;32.90;;
52708;SDS011;38606;52.986;6.980;2023-06-22T02:57:30;41.28;;;32.63;;
52708;SDS011;38606;52.986;6.980;2023-06-22T02:59:56;41.58;;;32.13;;
52708;SDS011;38606;52.986;6.980;2023-06-22T03:02:22;43.70;;;34.85;;
52708;SDS011;38606;52.986;6.980;2023-06-22T03:04:47;49.17;;;36.38;;
52708;SDS011;38606;52.986;6.980;2023-06-22T03:07:14;51.50;;;36.88;;
52708;SDS011;38606;52.986;6.980;2023-06-22T03:09:40;43.83;;;33.75;;
52708;SDS011;38606;52.986;6.980;2023-06-22T03:12:08;48.70;;;35.75;;
52708;SDS011;38606;52.986;6.980;2023-06-22T03:14:34;46.70;;;35.38;;
52708;SDS011;38606;52.986;6.980;2023-06-22T03:16:59;52.47;;;36.65;;
52708;SDS011;38606;52.986;6.980;2023-06-22T03:19:28;48.80;;;36.17;;
52708;SDS011;38606;52.986;6.980;2023-06-22T03:21:56;49.58;;;36.28;;
52708;SDS011;38606;52.986;6.980;2023-06-22T03:24:23;48.97;;;37.00;;
52708;SDS011;38606;52.986;6.980;2023-06-22T03:26:48;53.13;;;38.88;;
52708;SDS011;38606;52.986;6.980;2023-06-22T03:29:14;48.83;;;36.83;;
52708;SDS011;38606;52.986;6.980;2023-06-22T03:31:40;46.22;;;35.10;;
52708;SDS011;38606;52.986;6.980;2023-06-22T03:34:06;55.50;;;39.58;;
52708;SDS011;38606;52.986;6.980;2023-06-22T03:36:32;51.53;;;37.67;;
52708;SDS011;38606;52.986;6.980;2023-06-22T03:38:57;47.95;;;36.85;;
52708;SDS011;38606;52.986;6.980;2023-06-22T03:41:23;49.78;;;37.53;;
52708;SDS011;38606;52.986;6.980;2023-06-22T03:43:49;51.00;;;37.90;;
52708;SDS011;38606;52.986;6.980;2023-06-22T03:46:15;48.97;;;36.47;;
52708;SDS011;38606;52.986;6.980;2023-06-22T03:48:40;47.50;;;36.92;;
52708;SDS011;38606;52.986;6.980;2023-06-22T03:51:06;51.08;;;35.75;;
52708;SDS011;38606;52.986;6.980;2023-06-22T03:53:32;52.90;;;39.10;;
52708;SDS011;38606;52.986;6.980;2023-06-22T03:55:57;45.67;;;35.10;;
52708;SDS011;38606;52.986;6.980;2023-06-22T03:58:23;53.22;;;35.85;;
52708;SDS011;38606;52.986;6.980;2023-06-22T04:00:49;41.45;;;33.50;;
52708;SDS011;38606;52.986;6.980;2023-06-22T04:03:16;50.28;;;36.25;;
52708;SDS011;38606;52.986;6.980;2023-06-22T04:05:43;47.45;;;35.92;;
52708;SDS011;38606;52.986;6.980;2023-06-22T04:08:09;46.85;;;35.30;;
52708;SDS011;38606;52.986;6.980;2023-06-22T04:10:35;49.67;;;37.67;;
52708;SDS011;38606;52.986;6.980;2023-06-22T04:13:01;47.75;;;37.25;;
52708;SDS011;38606;52.986;6.980;2023-06-22T04:15:27;43.72;;;35.20;;
52708;SDS011;38606;52.986;6.980;2023-06-22T04:17:54;47.05;;;37.65;;
52708;SDS011;38606;52.986;6.980;2023-06-22T04:20:20;48.53;;;36.13;;
52708;SDS011;38606;52.986;6.980;2023-06-22T04:22:45;47.58;;;38.22;;
52708;SDS011;38606;52.986;6.980;2023-06-22T04:25:11;48.20;;;36.33;;
52708;SDS011;38606;52.986;6.980;2023-06-22T04:27:37;50.97;;;37.67;;
52708;SDS011;38606;52.986;6.980;2023-06-22T04:30:05;47.08;;;36.15;;
52708;SDS011;38606;52.986;6.980;2023-06-22T04:32:32;44.22;;;33.67;;
52708;SDS011;38606;52.986;6.980;2023-06-22T04:35:01;45.42;;;36.20;;
52708;SDS011;38606;52.986;6.980;2023-06-22T04:37:30;54.55;;;36.13;;
52708;SDS011;38606;52.986;6.980;2023-06-22T04:39:56;47.03;;;35.42;;
52708;SDS011;38606;52.986;6.980;2023-06-22T04:42:22;51.40;;;36.00;;
52708;SDS011;38606;52.986;6.980;2023-06-22T04:44:48;47.80;;;34.60;;
52708;SDS011;38606;52.986;6.980;2023-06-22T04:47:13;46.28;;;35.45;;
52708;SDS011;38606;52.986;6.980;2023-06-22T04:49:39;46.90;;;33.95;;
52708;SDS011;38606;52.986;6.980;2023-06-22T04:52:08;42.90;;;32.78;;
52708;SDS011;38606;52.986;6.980;2023-06-22T04:54:37;42.35;;;33.80;;
52708;SDS011;38606;52.986;6.980;2023-06-22T04:57:05;45.28;;;34.78;;
52708;SDS011;38606;52.986;6.980;2023-06-22T04:59:35;39.90;;;31.65;;
52708;SDS011;38606;52.986;6.980;2023-06-22T05:02:04;41.97;;;32.08;;
52708;SDS011;38606;52.986;6.980;2023-06-22T05:04:31;41.20;;;30.15;;
52708;SDS011;38606;52.986;6.980;2023-06-22T05:06:57;38.08;;;30.85;;
52708;SDS011;38606;52.986;6.980;2023-06-22T05:09:25;36.40;;;28.80;;
52708;SDS011;38606;52.986;6.980;2023-06-22T05:11:51;33.20;;;27.55;;
52708;SDS011;38606;52.986;6.980;2023-06-22T05:14:17;39.88;;;29.27;;
52708;SDS011;38606;52.986;6.980;2023-06-22T05:16:44;39.70;;;29.38;;
52708;SDS011;38606;52.986;6.980;2023-06-22T05:19:10;39.08;;;30.40;;
52708;SDS011;38606;52.986;6.980;2023-06-22T05:21:36;34.97;;;27.85;;
52708;SDS011;38606;52.986;6.980;2023-06-22T05:24:02;37.28;;;27.88;;
52708;SDS011;38606;52.986;6.980;2023-06-22T05:26:28;36.90;;;27.35;;
52708;SDS011;38606;52.986;6.980;2023-06-22T05:28:55;34.08;;;27.38;;
52708;SDS011;38606;52.986;6.980;2023-06-22T05:31:21;38.95;;;28.25;;
52708;SDS011;38606;52.986;6.980;2023-06-22T05:33:48;38.30;;;27.63;;
52708;SDS011;38606;52.986;6.980;2023-06-22T05:36:16;36.55;;;27.52;;
52708;SDS011;38606;52.986;6.980;2023-06-22T05:38:43;32.45;;;25.63;;
52708;SDS011;38606;52.986;6.980;2023-06-22T05:41:09;33.42;;;24.45;;
52708;SDS011;38606;52.986;6.980;2023-06-22T05:43:34;31.92;;;25.00;;
52708;SDS011;38606;52.986;6.980;2023-06-22T05:46:00;31.67;;;24.55;;
52708;SDS011;38606;52.986;6.980;2023-06-22T05:48:27;30.45;;;23.42;;
52708;SDS011;38606;52.986;6.980;2023-06-22T05:50:53;29.30;;;22.67;;
52708;SDS011;38606;52.986;6.980;2023-06-22T05:53:19;26.65;;;22.98;;
52708;SDS011;38606;52.986;6.980;2023-06-22T05:55:45;25.92;;;20.60;;
52708;SDS011;38606;52.986;6.980;2023-06-22T05:58:11;28.05;;;21.00;;
52708;SDS011;38606;52.986;6.980;2023-06-22T06:00:38;24.42;;;19.05;;
52708;SDS011;38606;52.986;6.980;2023-06-22T06:03:04;27.90;;;21.23;;
52708;SDS011;38606;52.986;6.980;2023-06-22T06:05:31;25.17;;;19.30;;
52708;SDS011;38606;52.986;6.980;2023-06-22T06:08:00;25.10;;;19.02;;
52708;SDS011;38606;52.986;6.980;2023-06-22T06:10:27;25.27;;;18.10;;
52708;SDS011;38606;52.986;6.980;2023-06-22T06:12:54;22.55;;;17.73;;
52708;SDS011;38606;52.986;6.980;2023-06-22T06:15:20;21.23;;;16.65;;
52708;SDS011;38606;52.986;6.980;2023-06-22T06:17:47;21.08;;;16.92;;
52708;SDS011;38606;52.986;6.980;2023-06-22T06:20:13;19.75;;;15.13;;
52708;SDS011;38606;52.986;6.980;2023-06-22T06:22:40;18.05;;;14.10;;
52708;SDS011;38606;52.986;6.980;2023-06-22T06:25:05;16.10;;;13.77;;
52708;SDS011;38606;52.986;6.980;2023-06-22T06:27:31;18.38;;;14.73;;
52708;SDS011;38606;52.986;6.980;2023-06-22T06:29:57;19.13;;;13.95;;
52708;SDS011;38606;52.986;6.980;2023-06-22T06:32:22;17.77;;;14.63;;
52708;SDS011;38606;52.986;6.980;2023-06-22T06:34:49;16.25;;;14.45;;
52708;SDS011;38606;52.986;6.980;2023-06-22T06:37:14;18.05;;;13.50;;
52708;SDS011;38606;52.986;6.980;2023-06-22T06:39:40;17.10;;;13.50;;
52708;SDS011;38606;52.986;6.980;2023-06-22T06:42:06;17.77;;;14.02;;
52708;SDS011;38606;52.986;6.980;2023-06-22T06:44:32;18.38;;;13.27;;
52708;SDS011;38606;52.986;6.980;2023-06-22T06:46:57;18.65;;;13.27;;
52708;SDS011;38606;52.986;6.980;2023-06-22T06:49:23;15.98;;;12.45;;
52708;SDS011;38606;52.986;6.980;2023-06-22T06:51:49;13.45;;;11.30;;
52708;SDS011;38606;52.986;6.980;2023-06-22T06:54:16;16.23;;;12.43;;
52708;SDS011;38606;52.986;6.980;2023-06-22T06:56:41;14.50;;;11.65;;
52708;SDS011;38606;52.986;6.980;2023-06-22T06:59:13;17.45;;;13.60;;
52708;SDS011;38606;52.986;6.980;2023-06-22T07:01:41;15.55;;;13.10;;
52708;SDS011;38606;52.986;6.980;2023-06-22T07:04:09;15.45;;;13.07;;
52708;SDS011;38606;52.986;6.980;2023-06-22T07:06:35;17.38;;;12.57;;
52708;SDS011;38606;52.986;6.980;2023-06-22T07:09:01;14.68;;;12.10;;
52708;SDS011;38606;52.986;6.980;2023-06-22T07:11:28;16.23;;;11.40;;
52708;SDS011;38606;52.986;6.980;2023-06-22T07:13:54;13.55;;;10.60;;
52708;SDS011;38606;52.986;6.980;2023-06-22T07:16:20;12.18;;;10.25;;
52708;SDS011;38606;52.986;6.980;2023-06-22T07:18:46;12.02;;;9.68;;
52708;SDS011;38606;52.986;6.980;2023-06-22T07:21:11;17.55;;;9.38;;
52708;SDS011;38606;52.986;6.980;2023-06-22T07:23:37;12.63;;;9.52;;
52708;SDS011;38606;52.986;6.980;2023-06-22T07:26:03;12.77;;;9.48;;
52708;SDS011;38606;52.986;6.980;2023-06-22T07:28:31;11.15;;;8.85;;
52708;SDS011;38606;52.986;6.980;2023-06-22T07:31:02;12.73;;;9.73;;
52708;SDS011;38606;52.986;6.980;2023-06-22T07:33:28;11.93;;;8.65;;
52708;SDS011;38606;52.986;6.980;2023-06-22T07:35:54;10.65;;;8.43;;
52708;SDS011;38606;52.986;6.980;2023-06-22T07:38:20;10.75;;;8.68;;
52708;SDS011;38606;52.986;6.980;2023-06-22T07:40:46;12.27;;;8.70;;
52708;SDS011;38606;52.986;6.980;2023-06-22T07:43:12;8.75;;;6.50;;
52708;SDS011;38606;52.986;6.980;2023-06-22T07:45:38;9.63;;;7.25;;
52708;SDS011;38606;52.986;6.980;2023-06-22T07:48:05;11.88;;;7.93;;
52708;SDS011;38606;52.986;6.980;2023-06-22T07:50:32;11.07;;;7.65;;
52708;SDS011;38606;52.986;6.980;2023-06-22T07:52:57;11.05;;;7.93;;
52708;SDS011;38606;52.986;6.980;2023-06-22T07:55:23;12.68;;;8.98;;
52708;SDS011;38606;52.986;6.980;2023-06-22T07:57:49;9.57;;;7.70;;
52708;SDS011;38606;52.986;6.980;2023-06-22T08:00:17;11.43;;;7.78;;
52708;SDS011;38606;52.986;6.980;2023-06-22T08:02:44;14.77;;;9.13;;
52708;SDS011;38606;52.986;6.980;2023-06-22T08:05:11;11.80;;;8.48;;
52708;SDS011;38606;52.986;6.980;2023-06-22T08:07:38;8.95;;;6.63;;
52708;SDS011;38606;52.986;6.980;2023-06-22T08:10:04;10.00;;;7.47;;
52708;SDS011;38606;52.986;6.980;2023-06-22T08:12:30;10.98;;;7.88;;
52708;SDS011;38606;52.986;6.980;2023-06-22T08:14:56;11.35;;;8.40;;
52708;SDS011;38606;52.986;6.980;2023-06-22T08:17:26;9.77;;;7.53;;
52708;SDS011;38606;52.986;6.980;2023-06-22T08:19:51;12.52;;;9.00;;
52708;SDS011;38606;52.986;6.980;2023-06-22T08:22:17;8.90;;;7.93;;
52708;SDS011;38606;52.986;6.980;2023-06-22T08:24:44;10.35;;;7.82;;
52708;SDS011;38606;52.986;6.980;2023-06-22T08:27:10;10.10;;;7.15;;
52708;SDS011;38606;52.986;6.980;2023-06-22T08:29:40;11.23;;;7.20;;
52708;SDS011;38606;52.986;6.980;2023-06-22T08:32:10;10.63;;;7.28;;
52708;SDS011;38606;52.986;6.980;2023-06-22T08:34:36;9.68;;;7.05;;
52708;SDS011;38606;52.986;6.980;2023-06-22T08:37:05;9.07;;;7.50;;
52708;SDS011;38606;52.986;6.980;2023-06-22T08:39:31;12.70;;;8.85;;
52708;SDS011;38606;52.986;6.980;2023-06-22T08:41:57;9.38;;;7.70;;
52708;SDS011;38606;52.986;6.980;2023-06-22T08:44:23;9.57;;;7.63;;
52708;SDS011;38606;52.986;6.980;2023-06-22T08:46:49;10.57;;;7.72;;
52708;SDS011;38606;52.986;6.980;2023-06-22T08:49:15;13.18;;;8.02;;
52708;SDS011;38606;52.986;6.980;2023-06-22T08:51:41;12.55;;;8.57;;
52708;SDS011;38606;52.986;6.980;2023-06-22T08:54:06;10.05;;;7.60;;
52708;SDS011;38606;52.986;6.980;2023-06-22T08:56:32;10.85;;;8.05;;
52708;SDS011;38606;52.986;6.980;2023-06-22T08:58:58;13.55;;;8.23;;
52708;SDS011;38606;52.986;6.980;2023-06-22T09:01:23;11.55;;;8.18;;
52708;SDS011;38606;52.986;6.980;2023-06-22T09:03:49;14.88;;;9.48;;
52708;SDS011;38606;52.986;6.980;2023-06-22T09:06:22;10.88;;;9.02;;
52708;SDS011;38606;52.986;6.980;2023-06-22T09:08:48;11.50;;;9.52;;
52708;SDS011;38606;52.986;6.980;2023-06-22T09:11:14;11.85;;;9.27;;
52708;SDS011;38606;52.986;6.980;2023-06-22T09:13:40;11.70;;;8.63;;
52708;SDS011;38606;52.986;6.980;2023-06-22T09:16:06;13.43;;;8.85;;
52708;SDS011;38606;52.986;6.980;2023-06-22T09:18:32;15.02;;;9.40;;
52708;SDS011;38606;52.986;6.980;2023-06-22T09:20:58;12.25;;;8.93;;
52708;SDS011;38606;52.986;6.980;2023-06-22T09:23:24;12.32;;;8.00;;
52708;SDS011;38606;52.986;6.980;2023-06-22T09:25:50;13.68;;;9.43;;
52708;SDS011;38606;52.986;6.980;2023-06-22T09:28:16;12.32;;;9.30;;
52708;SDS011;38606;52.986;6.980;2023-06-22T09:30:45;10.32;;;8.32;;
52708;SDS011;38606;52.986;6.980;2023-06-22T09:33:11;11.55;;;8.07;;
52708;SDS011;38606;52.986;6.980;2023-06-22T09:35:36;12.38;;;7.85;;
52708;SDS011;38606;52.986;6.980;2023-06-22T09:38:02;12.38;;;9.77;;
52708;SDS011;38606;52.986;6.980;2023-06-22T09:40:28;11.98;;;8.57;;
52708;SDS011;38606;52.986;6.980;2023-06-22T09:42:53;10.85;;;8.23;;
52708;SDS011;38606;52.986;6.980;2023-06-22T09:45:19;10.68;;;8.90;;
52708;SDS011;38606;52.986;6.980;2023-06-22T09:47:45;13.90;;;9.88;;
52708;SDS011;38606;52.986;6.980;2023-06-22T09:50:10;9.98;;;8.88;;
52708;SDS011;38606;52.986;6.980;2023-06-22T09:52:36;10.90;;;8.73;;
52708;SDS011;38606;52.986;6.980;2023-06-22T09:55:02;11.07;;;7.90;;
52708;SDS011;38606;52.986;6.980;2023-06-22T09:57:28;11.40;;;8.48;;
52708;SDS011;38606;52.986;6.980;2023-06-22T09:59:55;13.05;;;7.47;;
52708;SDS011;38606;52.986;6.980;2023-06-22T10:02:21;12.00;;;7.45;;
52708;SDS011;38606;52.986;6.980;2023-06-22T10:04:47;10.02;;;8.02;;
52708;SDS011;38606;52.986;6.980;2023-06-22T10:07:13;9.48;;;7.55;;
52708;SDS011;38606;52.986;6.980;2023-06-22T10:09:39;9.32;;;8.10;;
52708;SDS011;38606;52.986;6.980;2023-06-22T10:12:05;12.95;;;8.10;;
52708;SDS011;38606;52.986;6.980;2023-06-22T10:14:31;9.93;;;7.30;;
52708;SDS011;38606;52.986;6.980;2023-06-22T10:16:57;13.35;;;9.63;;
52708;SDS011;38606;52.986;6.980;2023-06-22T10:19:23;11.27;;;8.40;;
52708;SDS011;38606;52.986;6.980;2023-06-22T10:21:48;11.70;;;8.52;;
52708;SDS011;38606;52.986;6.980;2023-06-22T10:24:14;10.40;;;8.07;;
52708;SDS011;38606;52.986;6.980;2023-06-22T10:26:40;10.52;;;7.70;;
52708;SDS011;38606;52.986;6.980;2023-06-22T10:29:06;12.82;;;9.27;;
52708;SDS011;38606;52.986;6.980;2023-06-22T10:31:31;9.95;;;7.38;;
52708;SDS011;38606;52.986;6.980;2023-06-22T10:33:57;10.77;;;7.60;;
52708;SDS011;38606;52.986;6.980;2023-06-22T10:36:23;10.18;;;8.55;;
52708;SDS011;38606;52.986;6.980;2023-06-22T10:38:49;11.25;;;8.07;;
52708;SDS011;38606;52.986;6.980;2023-06-22T10:41:14;11.38;;;9.18;;
52708;SDS011;38606;52.986;6.980;2023-06-22T10:43:41;11.65;;;8.32;;
52708;SDS011;38606;52.986;6.980;2023-06-22T10:46:07;9.98;;;7.50;;
52708;SDS011;38606;52.986;6.980;2023-06-22T10:48:33;9.38;;;7.45;;
52708;SDS011;38606;52.986;6.980;2023-06-22T10:50:59;13.57;;;10.23;;
52708;SDS011;38606;52.986;6.980;2023-06-22T10:53:24;9.77;;;8.43;;
52708;SDS011;38606;52.986;6.980;2023-06-22T10:55:50;10.85;;;8.73;;
52708;SDS011;38606;52.986;6.980;2023-06-22T10:58:18;12.77;;;9.25;;
52708;SDS011;38606;52.986;6.980;2023-06-22T11:00:44;13.85;;;8.13;;
52708;SDS011;38606;52.986;6.980;2023-06-22T11:03:10;11.68;;;7.55;;
52708;SDS011;38606;52.986;6.980;2023-06-22T11:05:37;13.93;;;8.82;;
52708;SDS011;38606;52.986;6.980;2023-06-22T11:08:02;11.77;;;9.15;;
52708;SDS011;38606;52.986;6.980;2023-06-22T11:10:28;8.40;;;7.30;;
52708;SDS011;38606;52.986;6.980;2023-06-22T11:12:54;9.05;;;7.97;;
52708;SDS011;38606;52.986;6.980;2023-06-22T11:15:21;11.52;;;8.30;;
52708;SDS011;38606;52.986;6.980;2023-06-22T11:17:46;11.93;;;8.38;;
52708;SDS011;38606;52.986;6.980;2023-06-22T11:20:12;10.70;;;8.32;;
52708;SDS011;38606;52.986;6.980;2023-06-22T11:22:38;13.52;;;9.50;;
52708;SDS011;38606;52.986;6.980;2023-06-22T11:25:07;10.20;;;8.73;;
52708;SDS011;38606;52.986;6.980;2023-06-22T11:27:34;10.93;;;7.53;;
52708;SDS011;38606;52.986;6.980;2023-06-22T11:30:00;9.50;;;7.40;;
52708;SDS011;38606;52.986;6.980;2023-06-22T11:32:26;11.82;;;7.40;;
52708;SDS011;38606;52.986;6.980;2023-06-22T11:34:51;10.60;;;7.10;;
52708;SDS011;38606;52.986;6.980;2023-06-22T11:37:17;11.80;;;8.27;;
52708;SDS011;38606;52.986;6.980;2023-06-22T11:39:43;9.90;;;7.03;;
52708;SDS011;38606;52.986;6.980;2023-06-22T11:42:09;10.90;;;7.97;;
52708;SDS011;38606;52.986;6.980;2023-06-22T11:44:35;8.82;;;6.47;;
52708;SDS011;38606;52.986;6.980;2023-06-22T11:47:01;9.75;;;7.20;;
52708;SDS011;38606;52.986;6.980;2023-06-22T11:49:29;9.63;;;6.70;;
52708;SDS011;38606;52.986;6.980;2023-06-22T11:51:55;9.30;;;6.68;;
52708;SDS011;38606;52.986;6.980;2023-06-22T11:54:21;7.68;;;5.72;;
52708;SDS011;38606;52.986;6.980;2023-06-22T11:56:47;10.00;;;6.30;;
52708;SDS011;38606;52.986;6.980;2023-06-22T11:59:12;9.60;;;6.70;;
52708;SDS011;38606;52.986;6.980;2023-06-22T12:01:38;7.72;;;6.95;;
52708;SDS011;38606;52.986;6.980;2023-06-22T12:04:04;8.55;;;6.47;;
52708;SDS011;38606;52.986;6.980;2023-06-22T12:06:35;6.10;;;5.50;;
52708;SDS011;38606;52.986;6.980;2023-06-22T12:09:03;8.23;;;6.20;;
52708;SDS011;38606;52.986;6.980;2023-06-22T12:11:30;6.25;;;5.45;;
52708;SDS011;38606;52.986;6.980;2023-06-22T12:13:55;11.18;;;6.30;;
52708;SDS011;38606;52.986;6.980;2023-06-22T12:16:21;8.38;;;5.50;;
52708;SDS011;38606;52.986;6.980;2023-06-22T12:18:48;9.25;;;6.65;;
52708;SDS011;38606;52.986;6.980;2023-06-22T12:21:13;7.80;;;5.78;;
52708;SDS011;38606;52.986;6.980;2023-06-22T12:23:39;5.75;;;4.43;;
52708;SDS011;38606;52.986;6.980;2023-06-22T12:26:05;7.75;;;5.57;;
52708;SDS011;38606;52.986;6.980;2023-06-22T12:28:30;7.10;;;5.43;;
52708;SDS011;38606;52.986;6.980;2023-06-22T12:30:56;8.63;;;5.88;;
52708;SDS011;38606;52.986;6.980;2023-06-22T12:33:22;11.10;;;6.22;;
52708;SDS011;38606;52.986;6.980;2023-06-22T12:35:47;8.10;;;6.03;;
52708;SDS011;38606;52.986;6.980;2023-06-22T12:38:14;7.40;;;5.60;;
52708;SDS011;38606;52.986;6.980;2023-06-22T12:40:40;7.25;;;4.82;;
52708;SDS011;38606;52.986;6.980;2023-06-22T12:43:05;7.40;;;5.43;;
52708;SDS011;38606;52.986;6.980;2023-06-22T12:45:32;5.93;;;5.32;;
52708;SDS011;38606;52.986;6.980;2023-06-22T12:47:59;7.72;;;5.03;;
52708;SDS011;38606;52.986;6.980;2023-06-22T12:50:26;5.10;;;4.60;;
52708;SDS011;38606;52.986;6.980;2023-06-22T12:52:51;7.43;;;4.93;;
52708;SDS011;38606;52.986;6.980;2023-06-22T12:55:17;6.38;;;4.70;;
52708;SDS011;38606;52.986;6.980;2023-06-22T12:57:43;5.55;;;5.03;;
52708;SDS011;38606;52.986;6.980;2023-06-22T13:00:09;5.15;;;4.65;;
52708;SDS011;38606;52.986;6.980;2023-06-22T13:02:35;6.60;;;5.00;;
52708;SDS011;38606;52.986;6.980;2023-06-22T13:05:02;7.07;;;5.10;;
52708;SDS011;38606;52.986;6.980;2023-06-22T13:07:30;7.78;;;5.10;;
52708;SDS011;38606;52.986;6.980;2023-06-22T13:09:55;7.22;;;5.50;;
52708;SDS011;38606;52.986;6.980;2023-06-22T13:12:21;5.57;;;5.00;;
52708;SDS011;38606;52.986;6.980;2023-06-22T13:14:48;7.30;;;5.15;;
52708;SDS011;38606;52.986;6.980;2023-06-22T13:17:14;7.47;;;5.30;;
52708;SDS011;38606;52.986;6.980;2023-06-22T13:19:40;7.07;;;5.18;;
52708;SDS011;38606;52.986;6.980;2023-06-22T13:22:25;5.20;;;4.70;;
52708;SDS011;38606;52.986;6.980;2023-06-22T13:25:04;5.05;;;4.22;;
52708;SDS011;38606;52.986;6.980;2023-06-22T13:27:31;5.20;;;4.70;;
52708;SDS011;38606;52.986;6.980;2023-06-22T13:29:57;7.38;;;4.60;;
52708;SDS011;38606;52.986;6.980;2023-06-22T13:32:23;5.80;;;4.28;;
52708;SDS011;38606;52.986;6.980;2023-06-22T13:34:49;5.70;;;4.85;;
52708;SDS011;38606;52.986;6.980;2023-06-22T13:37:14;7.25;;;4.53;;
52708;SDS011;38606;52.986;6.980;2023-06-22T13:39:41;5.15;;;3.95;;
52708;SDS011;38606;52.986;6.980;2023-06-22T13:42:07;6.97;;;4.80;;
52708;SDS011;38606;52.986;6.980;2023-06-22T13:44:32;5.65;;;4.38;;
52708;SDS011;38606;52.986;6.980;2023-06-22T13:46:58;6.50;;;4.50;;
52708;SDS011;38606;52.986;6.980;2023-06-22T13:49:24;6.88;;;4.88;;
52708;SDS011;38606;52.986;6.980;2023-06-22T13:51:50;7.22;;;4.78;;
52708;SDS011;38606;52.986;6.980;2023-06-22T13:54:16;5.95;;;4.70;;
52708;SDS011;38606;52.986;6.980;2023-06-22T13:56:42;4.60;;;4.18;;
52708;SDS011;38606;52.986;6.980;2023-06-22T13:59:07;6.93;;;4.47;;
52708;SDS011;38606;52.986;6.980;2023-06-22T14:01:35;7.63;;;4.10;;
52708;SDS011;38606;52.986;6.980;2023-06-22T14:04:01;6.18;;;4.60;;
52708;SDS011;38606;52.986;6.980;2023-06-22T14:06:27;6.72;;;4.38;;
52708;SDS011;38606;52.986;6.980;2023-06-22T14:08:53;6.20;;;4.20;;
52708;SDS011;38606;52.986;6.980;2023-06-22T14:11:19;7.30;;;4.90;;
52708;SDS011;38606;52.986;6.980;2023-06-22T14:13:44;7.15;;;4.80;;
52708;SDS011;38606;52.986;6.980;2023-06-22T14:16:10;6.32;;;5.00;;
52708;SDS011;38606;52.986;6.980;2023-06-22T14:18:36;7.00;;;4.47;;
52708;SDS011;38606;52.986;6.980;2023-06-22T14:21:02;5.47;;;4.65;;
52708;SDS011;38606;52.986;6.980;2023-06-22T14:23:27;7.68;;;5.15;;
52708;SDS011;38606;52.986;6.980;2023-06-22T14:25:53;9.05;;;5.60;;
52708;SDS011;38606;52.986;6.980;2023-06-22T14:28:19;9.65;;;5.90;;
52708;SDS011;38606;52.986;6.980;2023-06-22T14:30:45;6.82;;;6.13;;
52708;SDS011;38606;52.986;6.980;2023-06-22T14:33:11;9.20;;;7.15;;
52708;SDS011;38606;52.986;6.980;2023-06-22T14:35:37;9.73;;;8.10;;
52708;SDS011;38606;52.986;6.980;2023-06-22T14:38:03;10.60;;;7.45;;